Time;durP1;ratioP1;P1;durP2;ratioP2;P2;SDS_P1;SDS_P2;PMS_P1;PMS_P2;Temp;Humidity;BMP_temperature;BMP_pressure;BME280_temperature;BME280_humidity;BME280_pressure;Samples;Min_cycle;Max_cycle;Signal;HPM_P1;HPM_P2
2021/06/11 00:01:39;;;;;;;18.92;12.70;;;16.80;99.90;;;;;;4993738;28;20506;-67
2021/06/11 00:04:05;;;;;;;16.52;11.88;;;16.80;99.90;;;;;;4995212;28;20049;-65
2021/06/11 00:06:32;;;;;;;20.75;13.00;;;16.70;99.90;;;;;;4996155;28;20085;-65
2021/06/11 00:09:00;;;;;;;19.27;13.80;;;16.70;99.90;;;;;;4995185;28;20064;-66
2021/06/11 00:11:27;;;;;;;16.98;12.15;;;16.60;99.90;;;;;;4992169;28;20080;-66
2021/06/11 00:13:53;;;;;;;17.58;12.75;;;16.70;99.90;;;;;;4993742;28;20045;-66
2021/06/11 00:16:20;;;;;;;18.35;12.32;;;16.70;99.90;;;;;;4993765;28;20119;-65
2021/06/11 00:18:47;;;;;;;20.55;12.07;;;16.70;99.90;;;;;;4993858;28;20041;-65
2021/06/11 00:21:13;;;;;;;19.58;13.77;;;16.80;99.90;;;;;;4993912;28;20046;-65
2021/06/11 00:23:40;;;;;;;25.05;15.52;;;16.80;99.90;;;;;;4995027;28;20057;-65
2021/06/11 00:26:07;;;;;;;26.27;15.45;;;16.80;99.90;;;;;;4995039;28;20136;-65
2021/06/11 00:28:34;;;;;;;30.80;17.42;;;16.70;99.90;;;;;;4994608;28;20053;-66
2021/06/11 00:31:01;;;;;;;31.95;18.08;;;16.60;99.90;;;;;;4993009;28;20132;-64
2021/06/11 00:33:27;;;;;;;33.15;17.00;;;16.50;99.90;;;;;;4995034;28;20052;-64
2021/06/11 00:35:54;;;;;;;24.98;15.88;;;16.40;99.90;;;;;;4993777;28;20049;-64
2021/06/11 00:38:21;;;;;;;29.63;16.05;;;16.40;99.90;;;;;;4994796;28;20083;-65
2021/06/11 00:40:47;;;;;;;24.85;16.13;;;16.40;99.90;;;;;;4993879;28;20053;-65
2021/06/11 00:43:15;;;;;;;25.70;15.57;;;16.40;99.90;;;;;;4994997;28;20053;-65
2021/06/11 00:45:42;;;;;;;25.60;14.60;;;16.40;99.90;;;;;;4995223;28;20518;-65
2021/06/11 00:48:09;;;;;;;25.10;15.43;;;16.40;99.90;;;;;;4995598;28;20046;-64
2021/06/11 00:50:36;;;;;;;23.45;15.13;;;16.40;99.90;;;;;;4993881;28;20049;-66
2021/06/11 00:53:03;;;;;;;22.75;14.85;;;16.30;99.90;;;;;;4994427;28;20049;-65
2021/06/11 00:55:30;;;;;;;22.52;14.15;;;16.30;99.90;;;;;;4994778;28;20525;-65
2021/06/11 00:57:57;;;;;;;21.73;14.45;;;16.40;99.90;;;;;;4994682;28;20132;-66
2021/06/11 01:00:26;;;;;;;24.85;15.25;;;16.40;99.90;;;;;;4991175;28;20059;-64
2021/06/11 01:02:52;;;;;;;22.67;14.90;;;16.30;99.90;;;;;;4991245;28;20085;-64
2021/06/11 01:05:19;;;;;;;23.75;14.50;;;16.40;99.90;;;;;;4993104;28;20053;-65
2021/06/11 01:07:48;;;;;;;23.33;14.43;;;16.40;99.90;;;;;;4988559;28;20982;-66
2021/06/11 01:10:16;;;;;;;21.50;12.90;;;16.40;99.90;;;;;;4992847;28;20056;-65
2021/06/11 01:12:43;;;;;;;19.95;13.15;;;16.30;99.90;;;;;;4994585;28;20486;-66
2021/06/11 01:15:12;;;;;;;21.95;13.68;;;16.30;99.90;;;;;;4993890;28;20060;-65
2021/06/11 01:17:40;;;;;;;24.50;14.52;;;16.30;99.90;;;;;;4995108;28;20061;-66
2021/06/11 01:20:10;;;;;;;17.52;12.85;;;16.20;99.90;;;;;;4992476;28;20203;-66
2021/06/11 01:22:52;;;;;;;22.10;14.02;;;16.20;99.90;;;;;;4995117;28;20442;-65
2021/06/11 01:25:25;;;;;;;19.63;14.15;;;16.20;99.90;;;;;;4995854;28;20241;-65
2021/06/11 01:27:53;;;;;;;19.58;14.48;;;16.20;99.90;;;;;;4989805;28;20057;-66
2021/06/11 01:30:22;;;;;;;25.52;16.63;;;16.20;99.90;;;;;;4991436;28;20052;-64
2021/06/11 01:32:51;;;;;;;26.90;15.93;;;16.20;99.90;;;;;;4993839;28;20096;-65
2021/06/11 01:35:22;;;;;;;43.88;18.33;;;16.10;99.90;;;;;;4992493;28;20111;-65
2021/06/11 01:37:54;;;;;;;29.55;16.77;;;16.00;99.90;;;;;;4993647;28;20129;-65
2021/06/11 01:40:20;;;;;;;37.72;15.75;;;15.90;99.90;;;;;;4991323;28;20577;-66
2021/06/11 01:42:50;;;;;;;22.40;14.80;;;15.90;99.90;;;;;;4993304;28;20060;-65
2021/06/11 01:45:19;;;;;;;25.85;15.45;;;15.90;99.90;;;;;;4993307;28;20096;-65
2021/06/11 01:47:48;;;;;;;57.72;17.70;;;15.90;99.90;;;;;;4993569;28;20410;-65
2021/06/11 01:50:22;;;;;;;38.15;18.23;;;16.00;99.90;;;;;;4992418;28;20080;-65
2021/06/11 01:52:49;;;;;;;49.38;17.20;;;16.00;99.90;;;;;;4993206;28;20306;-65
2021/06/11 01:55:16;;;;;;;64.22;20.92;;;16.10;99.90;;;;;;4994208;28;20050;-65
2021/06/11 01:57:44;;;;;;;71.45;20.10;;;16.00;99.90;;;;;;4994447;28;20072;-64
2021/06/11 02:00:13;;;;;;;45.05;18.70;;;16.10;99.90;;;;;;4991255;28;20053;-65
2021/06/11 02:02:43;;;;;;;78.78;21.17;;;16.00;99.90;;;;;;4993983;28;20110;-65
2021/06/11 02:05:11;;;;;;;61.95;20.10;;;16.10;99.90;;;;;;4993199;28;20057;-65
2021/06/11 02:07:38;;;;;;;48.83;21.73;;;16.10;99.90;;;;;;4993247;28;20050;-66
2021/06/11 02:10:06;;;;;;;25.58;17.27;;;16.10;99.90;;;;;;4990204;28;20057;-66
2021/06/11 02:12:33;;;;;;;50.92;19.55;;;16.30;99.90;;;;;;4993372;28;20057;-64
2021/06/11 02:15:01;;;;;;;46.47;21.17;;;16.30;99.90;;;;;;4993683;28;20061;-64
2021/06/11 02:17:28;;;;;;;66.95;20.98;;;16.30;99.90;;;;;;4993400;28;20543;-65
2021/06/11 02:19:58;;;;;;;46.05;19.30;;;16.30;99.90;;;;;;4991940;28;20058;-66
2021/06/11 02:22:24;;;;;;;36.45;18.45;;;16.20;99.90;;;;;;4993831;28;20053;-65
2021/06/11 02:24:51;;;;;;;22.67;15.40;;;16.10;99.90;;;;;;4994594;28;20100;-65
2021/06/11 02:27:20;;;;;;;22.58;14.65;;;16.00;99.90;;;;;;4993063;28;20478;-65
2021/06/11 02:29:46;;;;;;;24.63;15.20;;;16.10;99.90;;;;;;4992267;28;20069;-65
2021/06/11 02:32:13;;;;;;;24.35;15.80;;;16.20;99.90;;;;;;4993494;28;20073;-66
2021/06/11 02:34:39;;;;;;;26.92;17.25;;;16.20;99.90;;;;;;4993061;28;20049;-65
2021/06/11 02:37:07;;;;;;;28.25;16.90;;;16.30;99.90;;;;;;4994143;28;20437;-65
2021/06/11 02:39:34;;;;;;;26.48;14.88;;;16.30;99.90;;;;;;4993388;28;20530;-66
2021/06/11 02:42:02;;;;;;;20.75;14.10;;;16.40;99.90;;;;;;4993444;28;20053;-65
2021/06/11 02:44:33;;;;;;;22.73;13.90;;;16.50;99.90;;;;;;4997484;28;21249;-64
2021/06/11 02:47:06;;;;;;;20.60;13.77;;;16.50;99.90;;;;;;4997190;28;21083;-65
2021/06/11 02:49:37;;;;;;;26.58;15.40;;;16.50;99.90;;;;;;4996323;28;20068;-66
2021/06/11 02:52:08;;;;;;;23.52;13.15;;;16.30;99.90;;;;;;4995741;28;20144;-67
2021/06/11 02:54:39;;;;;;;21.20;13.57;;;16.30;99.90;;;;;;4996334;28;21558;-64
2021/06/11 02:57:18;;;;;;;23.48;13.75;;;16.40;99.90;;;;;;4996192;28;20123;-66
2021/06/11 02:59:47;;;;;;;26.88;13.68;;;16.30;99.90;;;;;;4995512;28;20060;-65
2021/06/11 03:02:20;;;;;;;30.30;15.27;;;16.20;99.90;;;;;;4996795;28;20045;-65
2021/06/11 03:04:48;;;;;;;26.33;14.57;;;16.10;99.90;;;;;;4996320;28;20049;-65
2021/06/11 03:07:22;;;;;;;61.33;17.33;;;16.10;99.90;;;;;;4996782;28;20049;-66
2021/06/11 03:09:50;;;;;;;64.22;17.42;;;16.00;99.90;;;;;;4994626;28;20057;-65
2021/06/11 03:12:17;;;;;;;94.88;19.40;;;16.10;99.90;;;;;;4995157;28;20041;-66
2021/06/11 03:14:44;;;;;;;45.83;18.33;;;16.10;99.90;;;;;;4996744;28;20106;-64
2021/06/11 03:17:12;;;;;;;48.60;16.38;;;16.00;99.90;;;;;;4995635;28;20050;-65
2021/06/11 03:19:41;;;;;;;37.75;15.80;;;16.10;99.90;;;;;;4996290;28;20056;-66
2021/06/11 03:22:12;;;;;;;33.55;15.30;;;16.10;99.90;;;;;;4995993;28;20049;-64
2021/06/11 03:24:50;;;;;;;24.67;14.30;;;16.20;99.90;;;;;;4996371;28;20081;-65
2021/06/11 03:27:23;;;;;;;38.40;15.18;;;16.10;99.90;;;;;;4998253;28;20087;-66
2021/06/11 03:29:55;;;;;;;30.55;15.60;;;16.10;99.90;;;;;;4994714;28;20089;-64
2021/06/11 03:32:25;;;;;;;21.85;14.55;;;16.10;99.90;;;;;;4995595;28;21541;-65
2021/06/11 03:34:55;;;;;;;21.65;13.73;;;16.10;99.90;;;;;;4995935;28;20081;-65
2021/06/11 03:37:25;;;;;;;19.73;13.52;;;16.10;99.90;;;;;;4995135;28;20085;-65
2021/06/11 03:39:57;;;;;;;22.00;13.80;;;16.20;99.90;;;;;;4994238;28;20093;-65
2021/06/11 03:42:24;;;;;;;18.13;12.55;;;16.20;99.90;;;;;;4996175;28;20312;-65
2021/06/11 03:44:53;;;;;;;17.63;12.32;;;16.10;99.90;;;;;;4996006;28;20088;-65
2021/06/11 03:47:24;;;;;;;18.58;11.40;;;16.00;99.90;;;;;;4995542;28;20053;-65
2021/06/11 03:49:53;;;;;;;18.77;11.95;;;16.00;99.90;;;;;;4994995;28;20107;-65
2021/06/11 03:52:23;;;;;;;18.55;12.18;;;16.00;99.90;;;;;;4994392;28;20048;-65
2021/06/11 03:54:54;;;;;;;18.38;12.35;;;16.00;99.90;;;;;;4995227;28;20103;-66
2021/06/11 03:57:23;;;;;;;20.75;13.18;;;16.10;99.90;;;;;;4997312;28;20115;-66
2021/06/11 03:59:50;;;;;;;20.75;13.70;;;16.10;99.90;;;;;;4994745;28;20112;-64
2021/06/11 04:02:17;;;;;;;24.13;15.00;;;16.10;99.90;;;;;;4995229;28;20068;-66
2021/06/11 04:04:44;;;;;;;24.20;15.07;;;16.10;99.90;;;;;;4995931;28;20050;-65
2021/06/11 04:07:16;;;;;;;29.27;16.20;;;15.90;99.90;;;;;;4995174;28;20063;-65
2021/06/11 04:09:46;;;;;;;37.70;16.88;;;15.90;99.90;;;;;;4996804;28;20049;-65
2021/06/11 04:12:21;;;;;;;31.23;17.92;;;15.90;99.90;;;;;;4995922;28;20081;-65
2021/06/11 04:14:50;;;;;;;35.08;16.05;;;15.80;99.90;;;;;;4995875;28;20096;-65
2021/06/11 04:17:22;;;;;;;37.65;17.63;;;15.90;99.90;;;;;;4994907;28;20138;-65
2021/06/11 04:19:51;;;;;;;42.72;16.88;;;15.80;99.90;;;;;;4993790;28;20056;-65
2021/06/11 04:22:22;;;;;;;49.38;18.10;;;15.80;99.90;;;;;;4995583;28;20068;-65
2021/06/11 04:24:50;;;;;;;59.00;18.10;;;15.90;99.90;;;;;;4994588;28;20053;-65
2021/06/11 04:27:19;;;;;;;27.83;16.25;;;15.90;99.90;;;;;;4994615;28;20083;-64
2021/06/11 04:29:47;;;;;;;22.33;13.35;;;16.00;99.90;;;;;;4994966;28;20049;-64
2021/06/11 04:32:14;;;;;;;18.20;12.55;;;15.80;99.90;;;;;;4995188;28;20056;-64
2021/06/11 04:34:41;;;;;;;22.27;12.73;;;15.80;99.90;;;;;;4995550;28;20056;-64
2021/06/11 04:37:08;;;;;;;30.60;13.82;;;15.70;99.90;;;;;;4994913;28;20048;-64
2021/06/11 04:39:35;;;;;;;77.88;16.70;;;15.70;99.90;;;;;;4997360;28;20457;-65
2021/06/11 04:42:01;;;;;;;89.30;17.00;;;15.70;99.90;;;;;;4993747;28;20061;-65
2021/06/11 04:44:29;;;;;;;36.10;14.05;;;15.60;99.90;;;;;;4994084;28;20060;-65
2021/06/11 04:46:56;;;;;;;22.15;13.38;;;15.70;99.90;;;;;;4994801;28;20131;-65
2021/06/11 04:49:22;;;;;;;81.10;14.60;;;15.80;99.90;;;;;;4995013;28;20861;-65
2021/06/11 04:51:49;;;;;;;36.03;15.32;;;15.80;99.90;;;;;;4992673;28;20243;-65
2021/06/11 04:54:15;;;;;;;69.22;16.52;;;15.80;99.90;;;;;;4994478;28;20461;-65
2021/06/11 04:56:42;;;;;;;27.63;12.52;;;16.00;99.90;;;;;;4994935;28;20509;-65
2021/06/11 04:59:08;;;;;;;29.35;11.98;;;16.00;99.90;;;;;;4993921;28;20045;-63
2021/06/11 05:01:36;;;;;;;39.25;13.73;;;15.90;99.90;;;;;;4993851;28;20168;-64
2021/06/11 05:04:03;;;;;;;29.65;13.13;;;15.90;99.90;;;;;;4995832;28;20049;-63
2021/06/11 05:06:29;;;;;;;24.70;12.48;;;15.80;99.90;;;;;;4994788;28;20053;-64
2021/06/11 05:08:56;;;;;;;36.08;11.98;;;15.80;99.90;;;;;;4993837;28;20104;-63
2021/06/11 05:11:23;;;;;;;17.42;11.00;;;15.70;99.90;;;;;;4993708;28;20525;-64
2021/06/11 05:13:49;;;;;;;13.65;9.98;;;15.90;99.90;;;;;;4993666;28;20056;-64
2021/06/11 05:16:16;;;;;;;34.95;11.13;;;16.10;99.90;;;;;;4993523;28;20045;-64
2021/06/11 05:18:44;;;;;;;16.20;10.88;;;16.00;99.90;;;;;;4994005;28;20103;-66
2021/06/11 05:21:10;;;;;;;20.20;11.52;;;16.10;99.90;;;;;;4993089;28;20085;-64
2021/06/11 05:23:37;;;;;;;16.88;10.88;;;16.30;99.90;;;;;;4993878;28;20065;-63
2021/06/11 05:26:03;;;;;;;23.75;11.68;;;16.20;99.90;;;;;;4993693;28;21061;-64
2021/06/11 05:28:30;;;;;;;15.18;10.73;;;16.20;99.90;;;;;;4992300;28;20423;-64
2021/06/11 05:30:57;;;;;;;23.30;12.43;;;16.20;99.90;;;;;;4991961;28;20045;-64
2021/06/11 05:33:24;;;;;;;16.95;11.77;;;16.30;99.90;;;;;;4992025;28;20055;-64
2021/06/11 05:35:52;;;;;;;18.35;11.32;;;16.30;99.90;;;;;;4991913;28;22119;-64
2021/06/11 05:38:20;;;;;;;23.38;13.30;;;16.40;99.90;;;;;;4993327;28;20128;-65
2021/06/11 05:40:46;;;;;;;18.60;11.95;;;16.50;99.90;;;;;;4994054;28;20139;-65
2021/06/11 05:43:13;;;;;;;18.67;12.82;;;16.60;99.90;;;;;;4993458;28;20518;-65
2021/06/11 05:45:40;;;;;;;20.85;11.93;;;16.70;99.90;;;;;;4993718;28;20103;-65
2021/06/11 05:48:08;;;;;;;20.65;13.25;;;16.50;99.90;;;;;;4994115;28;20567;-65
2021/06/11 05:50:43;;;;;;;34.50;15.57;;;16.50;99.90;;;;;;4991400;28;20052;-65
2021/06/11 05:53:11;;;;;;;23.42;12.80;;;16.70;99.90;;;;;;4984516;28;21144;-65
2021/06/11 05:55:38;;;;;;;41.38;14.48;;;16.60;99.90;;;;;;4984353;28;20096;-64
2021/06/11 05:58:04;;;;;;;40.65;14.73;;;16.70;99.90;;;;;;4985619;28;20785;-67
2021/06/11 06:00:31;;;;;;;16.83;11.80;;;16.90;99.90;;;;;;4984440;28;20100;-66
2021/06/11 06:02:57;;;;;;;19.63;13.05;;;16.80;99.90;;;;;;4984196;28;20136;-66
2021/06/11 06:05:24;;;;;;;18.33;12.95;;;17.00;99.90;;;;;;4982134;28;20072;-63
2021/06/11 06:07:50;;;;;;;22.40;13.77;;;17.20;99.90;;;;;;4983755;28;20115;-66
2021/06/11 06:10:18;;;;;;;26.35;14.18;;;17.20;99.90;;;;;;4990480;28;20057;-66
2021/06/11 06:12:45;;;;;;;21.23;14.38;;;17.30;99.90;;;;;;4992080;28;20056;-65
2021/06/11 06:15:12;;;;;;;22.15;14.40;;;17.10;99.90;;;;;;4991938;28;20041;-64
2021/06/11 06:17:39;;;;;;;19.60;13.00;;;17.30;99.90;;;;;;4997972;28;20064;-67
2021/06/11 06:20:08;;;;;;;18.70;12.45;;;17.40;99.90;;;;;;4998182;28;20068;-67
2021/06/11 06:22:34;;;;;;;20.88;13.10;;;17.60;99.90;;;;;;4996715;28;20053;-66
2021/06/11 06:25:01;;;;;;;19.48;13.35;;;17.50;99.90;;;;;;4996358;28;20080;-67
2021/06/11 06:27:29;;;;;;;19.15;14.30;;;17.30;99.90;;;;;;4998828;28;20057;-65
2021/06/11 06:29:56;;;;;;;20.17;14.40;;;17.30;99.90;;;;;;4998307;28;20478;-64
2021/06/11 06:32:22;;;;;;;16.27;12.13;;;17.40;99.90;;;;;;4999298;28;20052;-64
2021/06/11 06:34:49;;;;;;;19.55;13.25;;;17.60;99.90;;;;;;4999669;28;20049;-64
2021/06/11 06:37:15;;;;;;;16.70;12.43;;;17.80;99.90;;;;;;4999495;28;20056;-66
2021/06/11 06:39:42;;;;;;;19.50;13.52;;;18.00;99.90;;;;;;4997834;28;20061;-68
2021/06/11 06:42:09;;;;;;;17.30;11.85;;;17.70;99.90;;;;;;4998390;28;20057;-65
2021/06/11 06:44:39;;;;;;;17.10;12.23;;;17.90;99.90;;;;;;4999055;28;20064;-65
2021/06/11 06:47:06;;;;;;;19.15;12.95;;;17.90;99.90;;;;;;4996425;28;20045;-65
2021/06/11 06:49:33;;;;;;;17.85;11.70;;;18.00;99.90;;;;;;4996591;28;20053;-66
2021/06/11 06:52:00;;;;;;;17.75;12.73;;;18.00;99.90;;;;;;4996183;28;20120;-66
2021/06/11 06:54:27;;;;;;;17.08;11.95;;;18.20;99.90;;;;;;5000030;28;20135;-64
2021/06/11 06:56:54;;;;;;;17.75;12.35;;;18.30;99.90;;;;;;5002591;28;20506;-65
2021/06/11 06:59:21;;;;;;;17.25;12.32;;;18.50;99.90;;;;;;5002490;28;20510;-65
2021/06/11 07:01:49;;;;;;;18.75;11.95;;;18.80;99.90;;;;;;5001905;28;20053;-64
2021/06/11 07:04:17;;;;;;;16.23;11.38;;;18.60;99.90;;;;;;5004731;28;20469;-68
2021/06/11 07:06:49;;;;;;;16.23;11.68;;;18.80;99.90;;;;;;5003077;28;20155;-67
2021/06/11 07:09:15;;;;;;;15.68;11.32;;;18.80;99.90;;;;;;5000052;28;20506;-66
2021/06/11 07:11:42;;;;;;;18.40;11.70;;;19.20;99.90;;;;;;4999907;28;20111;-67
2021/06/11 07:14:08;;;;;;;18.25;11.77;;;19.10;99.90;;;;;;4999298;28;20489;-68
2021/06/11 07:16:35;;;;;;;17.02;12.27;;;18.80;99.90;;;;;;4997403;28;20089;-68
2021/06/11 07:19:02;;;;;;;18.83;12.93;;;18.70;99.90;;;;;;4997936;28;20064;-67
2021/06/11 07:21:29;;;;;;;18.20;12.52;;;18.70;99.90;;;;;;4998047;28;20077;-68
2021/06/11 07:23:55;;;;;;;15.25;11.23;;;18.90;99.90;;;;;;4997770;28;20056;-67
2021/06/11 07:26:25;;;;;;;16.15;11.65;;;18.90;99.90;;;;;;5000337;28;20606;-67
2021/06/11 07:28:51;;;;;;;16.38;12.05;;;19.20;99.90;;;;;;5004253;28;20525;-67
2021/06/11 07:31:18;;;;;;;15.93;11.60;;;19.20;99.90;;;;;;5001168;28;20136;-66
2021/06/11 07:33:44;;;;;;;17.88;12.88;;;19.20;99.90;;;;;;5001869;28;20064;-68
2021/06/11 07:36:12;;;;;;;15.38;11.25;;;19.20;99.90;;;;;;4999569;28;20093;-67
2021/06/11 07:38:39;;;;;;;13.38;10.02;;;19.40;99.90;;;;;;5000827;28;20124;-66
2021/06/11 07:41:06;;;;;;;15.57;11.40;;;19.60;99.90;;;;;;4995045;28;20109;-65
2021/06/11 07:43:39;;;;;;;16.02;11.68;;;19.70;99.90;;;;;;5001004;28;20057;-63
2021/06/11 07:46:06;;;;;;;15.82;11.57;;;19.70;99.90;;;;;;4998565;28;21781;-63
2021/06/11 07:48:32;;;;;;;13.20;10.18;;;19.90;99.90;;;;;;4996527;28;20896;-63
2021/06/11 07:50:59;;;;;;;14.52;10.63;;;20.10;99.90;;;;;;4997927;28;20049;-63
2021/06/11 07:53:27;;;;;;;15.52;10.75;;;20.30;99.90;;;;;;4999235;28;20053;-63
2021/06/11 07:55:53;;;;;;;13.20;9.75;;;20.30;99.90;;;;;;4997943;28;21317;-63
2021/06/11 07:58:20;;;;;;;16.35;10.65;;;20.50;99.90;;;;;;4997967;28;20096;-63
2021/06/11 08:00:46;;;;;;;16.02;10.05;;;20.70;99.90;;;;;;4997392;28;20060;-63
2021/06/11 08:03:12;;;;;;;12.43;9.48;;;20.90;99.90;;;;;;4999180;28;20140;-63
2021/06/11 08:05:39;;;;;;;14.02;10.38;;;21.10;99.90;;;;;;4998340;28;20081;-63
2021/06/11 08:08:07;;;;;;;13.82;9.55;;;21.10;99.90;;;;;;5000805;28;20199;-63
2021/06/11 08:10:35;;;;;;;13.57;9.95;;;21.30;99.90;;;;;;4996419;28;20536;-63
2021/06/11 08:13:03;;;;;;;13.55;9.02;;;21.50;99.90;;;;;;4997146;28;20521;-64
2021/06/11 08:15:29;;;;;;;12.50;9.43;;;21.60;99.90;;;;;;5002731;28;20060;-64
2021/06/11 08:17:56;;;;;;;15.07;8.88;;;21.90;99.90;;;;;;4999650;28;20533;-64
2021/06/11 08:20:23;;;;;;;13.18;9.45;;;22.20;99.90;;;;;;4997460;28;20091;-64
2021/06/11 08:22:49;;;;;;;17.02;9.65;;;22.40;99.90;;;;;;4996952;28;20045;-64
2021/06/11 08:25:16;;;;;;;12.43;9.70;;;22.40;99.90;;;;;;5007954;28;20049;-64
2021/06/11 08:27:44;;;;;;;11.82;8.75;;;22.40;99.90;;;;;;4999504;28;20162;-64
2021/06/11 08:30:12;;;;;;;12.32;9.43;;;22.60;99.90;;;;;;4996001;28;20049;-64
2021/06/11 08:32:39;;;;;;;13.10;8.73;;;22.90;99.90;;;;;;4998830;28;20071;-64
2021/06/11 08:35:07;;;;;;;11.77;8.90;;;23.10;99.90;;;;;;4997023;28;20246;-64
2021/06/11 08:37:35;;;;;;;12.23;10.77;;;23.10;99.90;;;;;;4995325;28;20064;-62
2021/06/11 08:40:02;;;;;;;14.35;9.38;;;23.20;99.90;;;;;;4994587;28;20050;-62
2021/06/11 08:42:30;;;;;;;17.27;9.52;;;23.30;99.90;;;;;;4998129;28;20049;-62
2021/06/11 08:45:01;;;;;;;14.75;9.65;;;23.90;99.90;;;;;;4997257;28;20057;-62
2021/06/11 08:47:28;;;;;;;12.55;8.45;;;24.20;99.90;;;;;;4997594;28;20081;-63
2021/06/11 08:49:55;;;;;;;11.70;9.18;;;24.60;99.90;;;;;;4994350;28;20085;-62
2021/06/11 08:52:22;;;;;;;14.18;8.70;;;24.80;99.90;;;;;;4999761;28;20045;-63
2021/06/11 08:54:50;;;;;;;12.90;8.90;;;25.50;99.90;;;;;;4996195;28;20734;-62
2021/06/11 08:57:17;;;;;;;14.07;9.10;;;25.90;99.90;;;;;;4996543;28;20123;-63
2021/06/11 08:59:45;;;;;;;10.43;9.10;;;26.60;99.90;;;;;;4995685;28;20050;-63
2021/06/11 09:02:13;;;;;;;12.35;9.27;;;27.10;99.90;;;;;;4997963;28;20049;-63
2021/06/11 09:04:44;;;;;;;16.85;10.20;;;27.60;99.90;;;;;;4999210;28;20110;-65
2021/06/11 09:07:26;;;;;;;13.02;9.85;;;28.00;99.90;;;;;;4998533;28;20041;-65
2021/06/11 09:09:56;;;;;;;12.07;9.65;;;28.80;99.90;;;;;;4994964;28;20132;-63
2021/06/11 09:12:34;;;;;;;11.07;9.20;;;29.40;99.90;;;;;;4998932;28;20060;-63
2021/06/11 09:15:04;;;;;;;9.77;8.10;;;29.90;99.90;;;;;;5000196;28;20061;-63
2021/06/11 09:17:40;;;;;;;11.40;8.90;;;30.20;99.90;;;;;;4999083;28;20136;-63
2021/06/11 09:20:13;;;;;;;9.73;8.55;;;30.70;99.90;;;;;;4995524;28;20062;-63
2021/06/11 09:22:45;;;;;;;11.93;8.77;;;30.80;99.90;;;;;;5001205;28;20057;-63
2021/06/11 09:25:33;;;;;;;14.50;8.95;;;31.40;99.90;;;;;;4998908;28;20796;-63
2021/06/11 09:28:02;;;;;;;11.18;7.47;;;31.70;99.90;;;;;;5000159;28;20089;-63
2021/06/11 09:30:45;;;;;;;9.95;7.88;;;32.10;99.90;;;;;;4999744;28;20156;-63
2021/06/11 09:33:15;;;;;;;8.70;6.97;;;32.40;99.90;;;;;;5001083;28;20052;-63
2021/06/11 09:35:43;;;;;;;9.35;8.18;;;32.80;99.90;;;;;;4999812;28;20081;-63
2021/06/11 09:38:16;;;;;;;20.35;8.23;;;32.80;99.90;;;;;;4997763;28;20156;-64
2021/06/11 09:40:44;;;;;;;13.77;8.70;;;33.20;99.90;;;;;;4997710;28;20061;-63
2021/06/11 09:43:11;;;;;;;9.90;8.10;;;33.40;99.90;;;;;;4996486;28;20049;-63
2021/06/11 09:45:38;;;;;;;9.43;7.85;;;33.70;99.90;;;;;;4999598;28;20711;-64
2021/06/11 09:48:18;;;;;;;8.85;7.07;;;33.60;99.90;;;;;;4999383;28;20056;-63
2021/06/11 09:50:48;;;;;;;11.88;8.63;;;33.90;99.90;;;;;;4996753;28;20088;-63
2021/06/11 09:53:15;;;;;;;9.10;7.70;;;34.10;99.90;;;;;;4997341;28;20753;-63
2021/06/11 09:55:45;;;;;;;8.07;7.28;;;34.20;99.90;;;;;;4997942;28;20053;-63
2021/06/11 09:58:15;;;;;;;11.18;7.82;;;34.50;99.90;;;;;;4995900;28;20057;-63
2021/06/11 10:00:47;;;;;;;10.63;8.57;;;34.80;98.90;;;;;;4997431;28;20061;-64
2021/06/11 10:03:19;;;;;;;10.52;9.40;;;34.80;97.80;;;;;;4997963;28;20124;-64
2021/06/11 10:05:46;;;;;;;9.32;7.45;;;34.50;96.60;;;;;;4997658;28;20716;-64
2021/06/11 10:08:14;;;;;;;9.50;8.23;;;34.50;98.00;;;;;;4998320;28;20046;-63
2021/06/11 10:10:43;;;;;;;10.02;7.95;;;34.80;96.50;;;;;;4996527;28;20122;-64
2021/06/11 10:13:11;;;;;;;11.82;7.75;;;35.10;96.00;;;;;;4997693;28;20050;-64
2021/06/11 10:15:38;;;;;;;12.75;8.23;;;35.30;96.00;;;;;;4998502;28;20498;-63
2021/06/11 10:18:06;;;;;;;9.57;8.40;;;35.10;94.30;;;;;;4998316;28;20050;-64
2021/06/11 10:20:34;;;;;;;10.30;7.85;;;35.50;93.70;;;;;;4996892;28;20112;-64
2021/06/11 10:23:01;;;;;;;11.02;8.23;;;35.80;92.60;;;;;;4997106;28;20049;-63
2021/06/11 10:25:28;;;;;;;11.63;8.35;;;35.80;90.00;;;;;;4997431;28;20045;-64
2021/06/11 10:27:55;;;;;;;11.90;7.57;;;36.00;90.30;;;;;;4997154;28;20518;-64
2021/06/11 10:30:27;;;;;;;9.90;7.50;;;35.40;89.10;;;;;;4997414;28;20048;-64
2021/06/11 10:32:54;;;;;;;8.02;6.85;;;35.50;87.10;;;;;;4996325;28;20084;-63
2021/06/11 10:35:55;;;;;;;8.18;6.95;;;35.60;87.20;;;;;;4997060;28;20771;-63
2021/06/11 10:38:32;;;;;;;10.55;6.45;;;35.30;85.80;;;;;;4937374;28;20094;-63
2021/06/11 10:41:00;;;;;;;9.07;5.70;;;35.20;83.90;;;;;;4935299;28;20061;-63
2021/06/11 10:43:34;;;;;;;5.53;4.28;;;35.40;77.50;;;;;;4967354;28;20148;-63
2021/06/11 10:46:02;;;;;;;7.00;4.80;;;35.70;77.20;;;;;;4996905;28;20045;-63
2021/06/11 10:49:00;;;;;;;10.10;5.05;;;35.80;75.70;;;;;;4997383;28;20038;-63
2021/06/11 10:51:39;;;;;;;10.52;5.03;;;35.60;75.30;;;;;;4995761;28;20052;-63
2021/06/11 10:54:26;;;;;;;7.15;5.30;;;35.70;74.00;;;;;;4999578;28;20521;-63
2021/06/11 10:57:15;;;;;;;7.93;4.78;;;35.70;70.90;;;;;;4997181;28;20045;-64
2021/06/11 10:59:43;;;;;;;6.45;4.22;;;35.70;72.80;;;;;;4994378;28;20080;-63
2021/06/11 11:02:10;;;;;;;6.88;4.30;;;36.10;71.00;;;;;;4999568;28;20057;-63
2021/06/11 11:04:39;;;;;;;12.38;5.88;;;36.00;69.20;;;;;;5001755;28;20049;-63
2021/06/11 11:07:32;;;;;;;8.38;5.43;;;35.60;69.00;;;;;;5000492;28;20049;-63
2021/06/11 11:10:01;;;;;;;8.35;5.05;;;35.70;68.50;;;;;;5000384;28;20563;-63
2021/06/11 11:12:29;;;;;;;5.82;4.50;;;35.40;68.70;;;;;;5000813;28;20053;-63
2021/06/11 11:14:56;;;;;;;8.02;5.60;;;35.90;69.30;;;;;;5000918;28;20061;-63
2021/06/11 11:17:24;;;;;;;9.35;5.20;;;35.30;69.10;;;;;;5000024;28;20120;-63
2021/06/11 11:19:56;;;;;;;5.68;4.10;;;35.00;69.90;;;;;;4996848;28;20172;-63
2021/06/11 11:22:24;;;;;;;7.20;5.20;;;35.80;72.00;;;;;;4998619;28;20061;-63
2021/06/11 11:24:53;;;;;;;8.57;4.72;;;35.60;69.00;;;;;;5007997;28;20045;-63
2021/06/11 11:27:19;;;;;;;7.57;5.10;;;35.20;71.00;;;;;;5006809;28;20115;-63
2021/06/11 11:29:46;;;;;;;9.30;5.78;;;35.10;71.10;;;;;;5003383;28;20080;-63
2021/06/11 11:32:12;;;;;;;6.82;5.05;;;35.40;67.80;;;;;;5003998;28;21129;-63
2021/06/11 11:34:39;;;;;;;6.80;4.80;;;35.20;69.90;;;;;;5005293;28;20092;-64
2021/06/11 11:37:05;;;;;;;7.43;5.07;;;35.40;71.60;;;;;;5003784;28;20073;-64
2021/06/11 11:39:32;;;;;;;7.40;4.60;;;35.70;68.80;;;;;;5004688;28;20454;-64
2021/06/11 11:42:00;;;;;;;10.20;4.80;;;35.90;68.10;;;;;;5005044;28;20099;-64
2021/06/11 11:44:27;;;;;;;7.13;4.97;;;36.20;66.20;;;;;;5005565;28;20053;-64
2021/06/11 11:46:54;;;;;;;6.85;4.40;;;35.90;66.60;;;;;;5004809;28;20057;-64
2021/06/11 11:49:22;;;;;;;6.82;4.82;;;36.00;65.00;;;;;;5004929;28;20049;-65
2021/06/11 11:51:49;;;;;;;7.03;4.43;;;36.50;65.30;;;;;;5002846;28;20050;-65
2021/06/11 11:54:16;;;;;;;5.65;4.60;;;36.10;63.40;;;;;;5000996;28;20140;-65
2021/06/11 11:56:42;;;;;;;7.28;4.95;;;36.20;65.20;;;;;;5003982;28;20089;-65
2021/06/11 11:59:10;;;;;;;8.20;4.68;;;36.00;62.90;;;;;;5008153;28;20120;-67
2021/06/11 12:01:38;;;;;;;6.95;4.43;;;36.50;63.90;;;;;;5007701;28;20137;-67
2021/06/11 12:04:05;;;;;;;7.30;4.38;;;36.70;65.00;;;;;;5006942;28;20045;-68
2021/06/11 12:06:31;;;;;;;7.50;4.68;;;36.40;62.90;;;;;;4997243;28;20049;-67
2021/06/11 12:08:58;;;;;;;5.90;4.50;;;36.60;62.00;;;;;;5005512;28;20796;-67
2021/06/11 12:11:24;;;;;;;10.77;4.45;;;36.90;63.60;;;;;;5004472;28;20077;-68
2021/06/11 12:13:51;;;;;;;6.68;4.07;;;36.90;62.00;;;;;;5006017;28;20076;-67
2021/06/11 12:16:19;;;;;;;5.63;4.13;;;36.80;62.20;;;;;;5007536;28;20049;-67
2021/06/11 12:18:45;;;;;;;7.88;4.78;;;37.10;60.50;;;;;;5006715;28;20045;-66
2021/06/11 12:21:16;;;;;;;10.43;4.68;;;36.60;59.60;;;;;;5003670;28;20057;-64
2021/06/11 12:23:47;;;;;;;7.70;4.43;;;36.40;60.70;;;;;;5006900;28;20061;-64
2021/06/11 12:26:14;;;;;;;6.70;4.38;;;36.30;59.80;;;;;;5007302;28;20573;-63
2021/06/11 12:28:40;;;;;;;8.00;4.50;;;36.60;59.50;;;;;;5009192;28;20045;-64
2021/06/11 12:31:07;;;;;;;7.00;4.57;;;36.40;59.00;;;;;;5011497;28;20093;-63
2021/06/11 12:33:35;;;;;;;5.65;4.35;;;35.50;60.10;;;;;;5009782;28;20763;-63
2021/06/11 12:36:03;;;;;;;6.30;4.03;;;34.70;59.30;;;;;;5011716;28;20049;-63
2021/06/11 12:38:30;;;;;;;8.55;4.38;;;34.10;61.10;;;;;;5012569;28;20135;-64
2021/06/11 12:40:59;;;;;;;8.52;4.07;;;33.80;61.70;;;;;;5010448;28;20080;-63